UAE245 OMDB-OOMS
Flight info
| Callsign | UAE245 |
|---|---|
| Flight time | 0h 43m |
| Altitude | 25000 |
| Route | ANVI7F ANVIX L223 TARDI N629 MUSUK T511 MCT |
| Aircraft | A333/H-VGD/A |
Departure
| Time | 2026-04-26 17:20 |
|---|---|
| Airport | Dubai International Airport (OMDB) |
Arrival
| Time | 2026-04-26 18:04 |
|---|---|
| Airport | Muscat International Airport (OOMS) |
| Time | Latitude | Longitude | Altitude | Speed | Heading |
|---|---|---|---|---|---|
| 2026-04-26 17:02 | 25.24877 | 55.36295 | 31 ft | 0 kts | 216° |
| 2026-04-26 17:06 | 25.24887 | 55.36303 | 31 ft | 7 kts | 211° |
| 2026-04-26 17:07 | 25.24987 | 55.36310 | 31 ft | 20 kts | 130° |
| 2026-04-26 17:07 | 25.24994 | 55.36303 | 31 ft | 0 kts | 98° |
| 2026-04-26 17:07 | 25.24981 | 55.36338 | 31 ft | 11 kts | 92° |
| 2026-04-26 17:07 | 25.24981 | 55.36348 | 32 ft | 0 kts | 90° |
| 2026-04-26 17:09 | 25.24979 | 55.36354 | 32 ft | 4 kts | 113° |
| 2026-04-26 17:09 | 25.24948 | 55.36394 | 32 ft | 15 kts | 133° |
| 2026-04-26 17:09 | 25.24822 | 55.36600 | 41 ft | 31 kts | 120° |
| 2026-04-26 17:09 | 25.24776 | 55.36763 | 44 ft | 18 kts | 102° |
| 2026-04-26 17:10 | 25.24731 | 55.36886 | 44 ft | 0 kts | 118° |
| 2026-04-26 17:10 | 25.24713 | 55.36917 | 44 ft | 8 kts | 124° |
| 2026-04-26 17:10 | 25.24666 | 55.37002 | 47 ft | 19 kts | 121° |
| 2026-04-26 17:11 | 25.24563 | 55.37184 | 49 ft | 36 kts | 120° |
| 2026-04-26 17:11 | 25.24465 | 55.37362 | 54 ft | 24 kts | 120° |
| 2026-04-26 17:11 | 25.24370 | 55.37539 | 48 ft | 29 kts | 121° |
| 2026-04-26 17:11 | 25.24322 | 55.37642 | 47 ft | 3 kts | 114° |
| 2026-04-26 17:12 | 25.24313 | 55.37656 | 47 ft | 10 kts | 128° |
| 2026-04-26 17:12 | 25.24273 | 55.37750 | 50 ft | 5 kts | 70° |
| 2026-04-26 17:13 | 25.24282 | 55.37768 | 51 ft | 1 kts | 57° |
| 2026-04-26 17:13 | 25.24321 | 55.37808 | 55 ft | 11 kts | 37° |
| 2026-04-26 17:13 | 25.24349 | 55.37831 | 56 ft | 0 kts | 33° |
| 2026-04-26 17:14 | 25.24350 | 55.37831 | 56 ft | 0 kts | 33° |
| 2026-04-26 17:17 | 25.24359 | 55.37838 | 56 ft | 6 kts | 34° |
| 2026-04-26 17:18 | 25.24429 | 55.37888 | 56 ft | 16 kts | 33° |
| 2026-04-26 17:18 | 25.24545 | 55.37977 | 56 ft | 21 kts | 34° |
| 2026-04-26 17:18 | 25.24645 | 55.38050 | 56 ft | 0 kts | 32° |
| 2026-04-26 17:19 | 25.24750 | 55.38092 | 56 ft | 17 kts | 346° |
| 2026-04-26 17:19 | 25.24802 | 55.38032 | 56 ft | 0 kts | 303° |
| 2026-04-26 17:19 | 25.24811 | 55.38016 | 56 ft | 15 kts | 302° |
| 2026-04-26 17:20 | 25.25018 | 55.37644 | 53 ft | 99 kts | 302° |
| 2026-04-26 17:20 | 25.25159 | 55.37391 | 50 ft | 126 kts | 303° |
| 2026-04-26 17:20 | 25.26188 | 55.35430 | 297 ft | 210 kts | 295° |
| 2026-04-26 17:20 | 25.26869 | 55.33989 | 1310 ft | 219 kts | 294° |
| 2026-04-26 17:21 | 25.27461 | 55.32407 | 2434 ft | 235 kts | 288° |
| 2026-04-26 17:21 | 25.27988 | 55.30655 | 3459 ft | 257 kts | 288° |
| 2026-04-26 17:21 | 25.28522 | 55.28678 | 4315 ft | 287 kts | 284° |
| 2026-04-26 17:21 | 25.29040 | 55.26510 | 5503 ft | 299 kts | 283° |
| 2026-04-26 17:22 | 25.29609 | 55.24354 | 6888 ft | 302 kts | 288° |
| 2026-04-26 17:22 | 25.30387 | 55.22134 | 7590 ft | 321 kts | 293° |
| 2026-04-26 17:22 | 25.31319 | 55.19849 | 7374 ft | 328 kts | 294° |
| 2026-04-26 17:22 | 25.32373 | 55.17620 | 7002 ft | 319 kts | 299° |
| 2026-04-26 17:23 | 25.33445 | 55.15574 | 7132 ft | 299 kts | 300° |
| 2026-04-26 17:23 | 25.34641 | 55.13669 | 7173 ft | 305 kts | 309° |
| 2026-04-26 17:23 | 25.36320 | 55.12145 | 7152 ft | 314 kts | 328° |
| 2026-04-26 17:23 | 25.38427 | 55.11417 | 7172 ft | 324 kts | 353° |
| 2026-04-26 17:24 | 25.40723 | 55.11849 | 7209 ft | 336 kts | 20° |
| 2026-04-26 17:24 | 25.42629 | 55.13390 | 7256 ft | 347 kts | 47° |
| 2026-04-26 17:24 | 25.44008 | 55.15654 | 7364 ft | 349 kts | 53° |
| 2026-04-26 17:24 | 25.45353 | 55.17847 | 7438 ft | 349 kts | 51° |
| 2026-04-26 17:25 | 25.46782 | 55.20159 | 6805 ft | 369 kts | 59° |
| 2026-04-26 17:25 | 25.47620 | 55.22768 | 6961 ft | 353 kts | 77° |
| 2026-04-26 17:25 | 25.47646 | 55.25404 | 7097 ft | 334 kts | 99° |
| 2026-04-26 17:25 | 25.46873 | 55.27734 | 7141 ft | 320 kts | 121° |
| 2026-04-26 17:26 | 25.45351 | 55.29548 | 7014 ft | 323 kts | 146° |
| 2026-04-26 17:26 | 25.43578 | 55.31033 | 7079 ft | 320 kts | 135° |
| 2026-04-26 17:26 | 25.42029 | 55.32820 | 6959 ft | 322 kts | 135° |
| 2026-04-26 17:26 | 25.40482 | 55.34582 | 6956 ft | 322 kts | 133° |
| 2026-04-26 17:27 | 25.38904 | 55.36410 | 6960 ft | 331 kts | 132° |
| 2026-04-26 17:27 | 25.37294 | 55.38291 | 6976 ft | 337 kts | 135° |
| 2026-04-26 17:27 | 25.35650 | 55.40118 | 7094 ft | 338 kts | 133° |
| 2026-04-26 17:27 | 25.34033 | 55.42030 | 7100 ft | 351 kts | 131° |
| 2026-04-26 17:28 | 25.32232 | 55.43959 | 7134 ft | 363 kts | 143° |
| 2026-04-26 17:28 | 25.30037 | 55.45426 | 7025 ft | 374 kts | 157° |
| 2026-04-26 17:28 | 25.27545 | 55.46286 | 7031 ft | 373 kts | 172° |
| 2026-04-26 17:28 | 25.24977 | 55.46475 | 7035 ft | 365 kts | 186° |
| 2026-04-26 17:29 | 25.22513 | 55.45995 | 7029 ft | 358 kts | 200° |
| 2026-04-26 17:29 | 25.20973 | 55.45336 | 7036 ft | 353 kts | 204° |
| 2026-04-26 17:29 | 25.17922 | 55.43991 | 7018 ft | 353 kts | 207° |
| 2026-04-26 17:29 | 25.15644 | 55.42965 | 7063 ft | 353 kts | 202° |
| 2026-04-26 17:30 | 25.13331 | 55.41978 | 7143 ft | 352 kts | 204° |
| 2026-04-26 17:30 | 25.11058 | 55.40974 | 7076 ft | 355 kts | 206° |
| 2026-04-26 17:30 | 25.08770 | 55.39940 | 7067 ft | 355 kts | 202° |
| 2026-04-26 17:30 | 25.06426 | 55.39166 | 7402 ft | 347 kts | 188° |
| 2026-04-26 17:31 | 25.04008 | 55.39412 | 7719 ft | 353 kts | 165° |
| 2026-04-26 17:31 | 25.01851 | 55.40715 | 8051 ft | 357 kts | 141° |
| 2026-04-26 17:31 | 25.00321 | 55.42856 | 8385 ft | 361 kts | 117° |
| 2026-04-26 17:31 | 24.99463 | 55.45411 | 8797 ft | 356 kts | 108° |
| 2026-04-26 17:32 | 24.98662 | 55.47990 | 9269 ft | 351 kts | 108° |
| 2026-04-26 17:32 | 24.97908 | 55.50540 | 9788 ft | 355 kts | 107° |
| 2026-04-26 17:32 | 24.96990 | 55.53072 | 10266 ft | 356 kts | 114° |
| 2026-04-26 17:32 | 24.96009 | 55.55521 | 11189 ft | 351 kts | 115° |
| 2026-04-26 17:33 | 24.95012 | 55.57949 | 12244 ft | 345 kts | 115° |
| 2026-04-26 17:33 | 24.93916 | 55.60244 | 13152 ft | 342 kts | 115° |
| 2026-04-26 17:33 | 24.92875 | 55.62585 | 14039 ft | 338 kts | 114° |
| 2026-04-26 17:34 | 24.90924 | 55.67197 | 15753 ft | 331 kts | 116° |
| 2026-04-26 17:34 | 24.89967 | 55.69467 | 16591 ft | 327 kts | 117° |
| 2026-04-26 17:34 | 24.89028 | 55.71697 | 17366 ft | 323 kts | 114° |
| 2026-04-26 17:34 | 24.88122 | 55.73954 | 18129 ft | 320 kts | 115° |
| 2026-04-26 17:35 | 24.87268 | 55.76176 | 18845 ft | 317 kts | 114° |
| 2026-04-26 17:35 | 24.86416 | 55.78388 | 19254 ft | 322 kts | 113° |
| 2026-04-26 17:35 | 24.85582 | 55.80769 | 19405 ft | 337 kts | 108° |
| 2026-04-26 17:35 | 24.84912 | 55.83254 | 19600 ft | 349 kts | 106° |
| 2026-04-26 17:36 | 24.84278 | 55.85860 | 20154 ft | 357 kts | 107° |
| 2026-04-26 17:36 | 24.83511 | 55.88430 | 20695 ft | 348 kts | 116° |
| 2026-04-26 17:36 | 24.82261 | 55.90635 | 21246 ft | 339 kts | 129° |
| 2026-04-26 17:36 | 24.80687 | 55.92542 | 21688 ft | 331 kts | 136° |
| 2026-04-26 17:37 | 24.79035 | 55.94259 | 22032 ft | 327 kts | 141° |
| 2026-04-26 17:37 | 24.77301 | 55.95837 | 22388 ft | 324 kts | 143° |
| 2026-04-26 17:37 | 24.75558 | 55.97435 | 22564 ft | 330 kts | 139° |
| 2026-04-26 17:38 | 24.72147 | 56.01112 | 23146 ft | 351 kts | 136° |
| 2026-04-26 17:38 | 24.70448 | 56.03021 | 23551 ft | 357 kts | 137° |
| 2026-04-26 17:38 | 24.68582 | 56.04891 | 24007 ft | 360 kts | 142° |
| 2026-04-26 17:38 | 24.66631 | 56.06607 | 24376 ft | 367 kts | 146° |
| 2026-04-26 17:39 | 24.64620 | 56.08376 | 24784 ft | 375 kts | 142° |
| 2026-04-26 17:39 | 24.62582 | 56.10218 | 25116 ft | 383 kts | 144° |
| 2026-04-26 17:39 | 24.60421 | 56.12066 | 25072 ft | 406 kts | 144° |
| 2026-04-26 17:39 | 24.58264 | 56.14189 | 25126 ft | 426 kts | 140° |
| 2026-04-26 17:40 | 24.55905 | 56.16292 | 25116 ft | 443 kts | 146° |
| 2026-04-26 17:40 | 24.55107 | 56.16960 | 25115 ft | 449 kts | 146° |
| 2026-04-26 17:40 | 24.50872 | 56.20570 | 25136 ft | 476 kts | 145° |
| 2026-04-26 17:40 | 24.48181 | 56.22784 | 25146 ft | 484 kts | 146° |
| 2026-04-26 17:41 | 24.45612 | 56.25187 | 25140 ft | 485 kts | 140° |
| 2026-04-26 17:41 | 24.43052 | 56.27602 | 25140 ft | 484 kts | 139° |
| 2026-04-26 17:41 | 24.40752 | 56.30257 | 25120 ft | 483 kts | 135° |
| 2026-04-26 17:41 | 24.38302 | 56.32735 | 25090 ft | 477 kts | 144° |
| 2026-04-26 17:42 | 24.35668 | 56.34944 | 25082 ft | 474 kts | 142° |
| 2026-04-26 17:42 | 24.33232 | 56.37382 | 25079 ft | 472 kts | 140° |
| 2026-04-26 17:42 | 24.30866 | 56.39886 | 25039 ft | 477 kts | 132° |
| 2026-04-26 17:42 | 24.28892 | 56.42849 | 25052 ft | 487 kts | 123° |
| 2026-04-26 17:43 | 24.27305 | 56.46150 | 25052 ft | 495 kts | 119° |
| 2026-04-26 17:43 | 24.25753 | 56.49535 | 25011 ft | 499 kts | 115° |
| 2026-04-26 17:43 | 24.24185 | 56.52870 | 24995 ft | 492 kts | 120° |
| 2026-04-26 17:43 | 24.22467 | 56.56096 | 24992 ft | 486 kts | 123° |
| 2026-04-26 17:44 | 24.20677 | 56.59208 | 24991 ft | 485 kts | 124° |
| 2026-04-26 17:44 | 24.18752 | 56.62215 | 24982 ft | 483 kts | 129° |
| 2026-04-26 17:44 | 24.16691 | 56.65141 | 24996 ft | 484 kts | 130° |
| 2026-04-26 17:44 | 24.14633 | 56.68051 | 24970 ft | 483 kts | 130° |
| 2026-04-26 17:45 | 24.12608 | 56.70930 | 24971 ft | 483 kts | 130° |
| 2026-04-26 17:45 | 24.10559 | 56.73803 | 24842 ft | 468 kts | 130° |
| 2026-04-26 17:45 | 24.08620 | 56.76585 | 23877 ft | 452 kts | 129° |
| 2026-04-26 17:45 | 24.06808 | 56.79311 | 22869 ft | 439 kts | 127° |
| 2026-04-26 17:46 | 24.05134 | 56.82021 | 21555 ft | 434 kts | 124° |
| 2026-04-26 17:46 | 24.03638 | 56.84872 | 20067 ft | 432 kts | 117° |
| 2026-04-26 17:46 | 24.02461 | 56.87852 | 18625 ft | 426 kts | 111° |
| 2026-04-26 17:46 | 24.01381 | 56.90803 | 17193 ft | 420 kts | 111° |
| 2026-04-26 17:47 | 24.00356 | 56.93732 | 15819 ft | 411 kts | 109° |
| 2026-04-26 17:47 | 24.00022 | 56.94664 | 15384 ft | 408 kts | 111° |
| 2026-04-26 17:47 | 23.97755 | 56.99047 | 13136 ft | 397 kts | 121° |
| 2026-04-26 17:47 | 23.96289 | 57.01525 | 11681 ft | 393 kts | 122° |
| 2026-04-26 17:48 | 23.94857 | 57.04020 | 10256 ft | 388 kts | 120° |
| 2026-04-26 17:48 | 23.93394 | 57.06390 | 9687 ft | 361 kts | 128° |
| 2026-04-26 17:48 | 23.91912 | 57.08449 | 10135 ft | 337 kts | 127° |
| 2026-04-26 17:48 | 23.90445 | 57.10483 | 9881 ft | 338 kts | 130° |
| 2026-04-26 17:49 | 23.88871 | 57.12367 | 9993 ft | 336 kts | 132° |
| 2026-04-26 17:49 | 23.87322 | 57.14255 | 9962 ft | 337 kts | 130° |
| 2026-04-26 17:49 | 23.85820 | 57.16225 | 9968 ft | 336 kts | 129° |
| 2026-04-26 17:49 | 23.84354 | 57.18210 | 9979 ft | 336 kts | 128° |
| 2026-04-26 17:50 | 23.82918 | 57.20206 | 9946 ft | 333 kts | 128° |
| 2026-04-26 17:50 | 23.81518 | 57.22201 | 9306 ft | 332 kts | 126° |
| 2026-04-26 17:50 | 23.80164 | 57.24256 | 8586 ft | 334 kts | 122° |
| 2026-04-26 17:50 | 23.78894 | 57.26387 | 7540 ft | 344 kts | 120° |
| 2026-04-26 17:51 | 23.77702 | 57.28669 | 6459 ft | 354 kts | 115° |
| 2026-04-26 17:51 | 23.76530 | 57.31062 | 5403 ft | 358 kts | 114° |
| 2026-04-26 17:51 | 23.75431 | 57.33446 | 4243 ft | 354 kts | 115° |
| 2026-04-26 17:51 | 23.74318 | 57.35822 | 3014 ft | 354 kts | 114° |
| 2026-04-26 17:52 | 23.73244 | 57.38180 | 1997 ft | 344 kts | 112° |
| 2026-04-26 17:52 | 23.72305 | 57.40443 | 1744 ft | 314 kts | 109° |
| 2026-04-26 17:52 | 23.71595 | 57.42546 | 2010 ft | 282 kts | 104° |
| 2026-04-26 17:52 | 23.71057 | 57.44588 | 1941 ft | 276 kts | 99° |
| 2026-04-26 17:53 | 23.70590 | 57.46595 | 2020 ft | 275 kts | 104° |
| 2026-04-26 17:53 | 23.70023 | 57.48632 | 1974 ft | 281 kts | 105° |
| 2026-04-26 17:53 | 23.69378 | 57.50621 | 1948 ft | 274 kts | 108° |
| 2026-04-26 17:54 | 23.68352 | 57.54535 | 1974 ft | 268 kts | 104° |
| 2026-04-26 17:54 | 23.67882 | 57.56314 | 1979 ft | 270 kts | 94° |
| 2026-04-26 17:54 | 23.67581 | 57.58273 | 2302 ft | 259 kts | 95° |
| 2026-04-26 17:54 | 23.67281 | 57.60198 | 2394 ft | 262 kts | 94° |
| 2026-04-26 17:55 | 23.66942 | 57.62285 | 1797 ft | 286 kts | 98° |
| 2026-04-26 17:55 | 23.66489 | 57.64364 | 1609 ft | 279 kts | 94° |
| 2026-04-26 17:55 | 23.65960 | 57.66397 | 1716 ft | 272 kts | 106° |
| 2026-04-26 17:55 | 23.65342 | 57.68332 | 1847 ft | 270 kts | 103° |
| 2026-04-26 17:56 | 23.64745 | 57.70287 | 1974 ft | 271 kts | 108° |
| 2026-04-26 17:56 | 23.63381 | 57.74134 | 2331 ft | 271 kts | 102° |
| 2026-04-26 17:57 | 23.62610 | 57.78196 | 2363 ft | 276 kts | 90° |
| 2026-04-26 17:57 | 23.62384 | 57.80259 | 2283 ft | 273 kts | 94° |
| 2026-04-26 17:57 | 23.62167 | 57.82277 | 2192 ft | 269 kts | 93° |
| 2026-04-26 17:57 | 23.61927 | 57.84302 | 2234 ft | 266 kts | 93° |
| 2026-04-26 17:58 | 23.61012 | 57.90359 | 2424 ft | 277 kts | 100° |
| 2026-04-26 17:59 | 23.59610 | 57.94258 | 2449 ft | 277 kts | 107° |
| 2026-04-26 17:59 | 23.58852 | 57.96161 | 2449 ft | 277 kts | 110° |
| 2026-04-26 17:59 | 23.58113 | 57.98017 | 2450 ft | 250 kts | 110° |
| 2026-04-26 17:59 | 23.57496 | 57.99723 | 2321 ft | 235 kts | 104° |
| 2026-04-26 18:00 | 23.57067 | 58.01394 | 2167 ft | 226 kts | 90° |
| 2026-04-26 18:00 | 23.56979 | 58.03086 | 2148 ft | 226 kts | 85° |
| 2026-04-26 18:00 | 23.57014 | 58.04805 | 2145 ft | 231 kts | 80° |
| 2026-04-26 18:00 | 23.57150 | 58.06555 | 2087 ft | 230 kts | 78° |
| 2026-04-26 18:01 | 23.57318 | 58.08275 | 2020 ft | 231 kts | 75° |
| 2026-04-26 18:01 | 23.57594 | 58.10052 | 1910 ft | 242 kts | 77° |
| 2026-04-26 18:01 | 23.57774 | 58.11855 | 1768 ft | 239 kts | 76° |
| 2026-04-26 18:01 | 23.57976 | 58.13633 | 1664 ft | 234 kts | 75° |
| 2026-04-26 18:02 | 23.58165 | 58.15387 | 1628 ft | 229 kts | 80° |
| 2026-04-26 18:02 | 23.58268 | 58.16526 | 1613 ft | 226 kts | 77° |
| 2026-04-26 18:02 | 23.58511 | 58.18789 | 1430 ft | 232 kts | 81° |
| 2026-04-26 18:02 | 23.58644 | 58.20585 | 1061 ft | 239 kts | 80° |
| 2026-04-26 18:03 | 23.58836 | 58.22375 | 803 ft | 240 kts | 79° |
| 2026-04-26 18:03 | 23.58974 | 58.24187 | 524 ft | 230 kts | 84° |
| 2026-04-26 18:03 | 23.59087 | 58.25893 | 287 ft | 226 kts | 86° |
| 2026-04-26 18:03 | 23.59246 | 58.27598 | 68 ft | 216 kts | 83° |
| 2026-04-26 18:04 | 23.59373 | 58.29110 | 45 ft | 177 kts | 85° |
| 2026-04-26 18:04 | 23.59450 | 58.30203 | 45 ft | 101 kts | 84° |
| 2026-04-26 18:04 | 23.59478 | 58.30531 | 45 ft | 22 kts | 79° |
| 2026-04-26 18:05 | 23.59577 | 58.30650 | 45 ft | 0 kts | 354° |
| 2026-04-26 18:07 | 23.59578 | 58.30650 | 45 ft | 1 kts | 354° |
| 2026-04-26 18:07 | 23.59640 | 58.30639 | 45 ft | 14 kts | 341° |
| 2026-04-26 18:07 | 23.59683 | 58.30523 | 45 ft | 21 kts | 265° |
| 2026-04-26 18:07 | 23.59676 | 58.30397 | 45 ft | 28 kts | 270° |
| 2026-04-26 18:08 | 23.59646 | 58.30045 | 45 ft | 40 kts | 264° |
| 2026-04-26 18:08 | 23.59617 | 58.29703 | 45 ft | 53 kts | 266° |
| 2026-04-26 18:08 | 23.59675 | 58.29283 | 45 ft | 56 kts | 268° |
| 2026-04-26 18:08 | 23.59662 | 58.28947 | 45 ft | 4 kts | 311° |
| 2026-04-26 18:09 | 23.59708 | 58.28926 | 45 ft | 14 kts | 348° |
| 2026-04-26 18:09 | 23.59731 | 58.28922 | 45 ft | 2 kts | 353° |
| 2026-04-26 18:09 | 23.59822 | 58.28899 | 45 ft | 10 kts | 322° |
| 2026-04-26 18:09 | 23.59820 | 58.28842 | 45 ft | 7 kts | 262° |
| 2026-04-26 18:10 | 23.59818 | 58.28813 | 45 ft | 0 kts | 265° |